sensor_id;sensor_type;location;lat;lon;timestamp;temperature;humidity
1766;DHT22;880;52.452;8.656;2023-05-16T00:00:40;11.90;99.90
1766;DHT22;880;52.452;8.656;2023-05-16T00:03:07;11.90;99.90
1766;DHT22;880;52.452;8.656;2023-05-16T00:05:37;11.80;99.90
1766;DHT22;880;52.452;8.656;2023-05-16T00:08:04;11.70;99.90
1766;DHT22;880;52.452;8.656;2023-05-16T00:10:31;11.80;99.90
1766;DHT22;880;52.452;8.656;2023-05-16T00:12:58;11.70;99.90
1766;DHT22;880;52.452;8.656;2023-05-16T00:15:28;11.80;99.90
1766;DHT22;880;52.452;8.656;2023-05-16T00:17:58;11.90;99.90
1766;DHT22;880;52.452;8.656;2023-05-16T00:20:26;11.80;99.90
1766;DHT22;880;52.452;8.656;2023-05-16T00:22:54;11.80;99.90
1766;DHT22;880;52.452;8.656;2023-05-16T00:25:22;11.80;99.90
1766;DHT22;880;52.452;8.656;2023-05-16T00:27:49;11.70;99.90
1766;DHT22;880;52.452;8.656;2023-05-16T00:30:16;11.80;99.90
1766;DHT22;880;52.452;8.656;2023-05-16T00:32:43;11.80;99.90
1766;DHT22;880;52.452;8.656;2023-05-16T00:35:10;11.80;99.90
1766;DHT22;880;52.452;8.656;2023-05-16T00:37:38;11.80;99.90
1766;DHT22;880;52.452;8.656;2023-05-16T00:40:06;11.70;99.90
1766;DHT22;880;52.452;8.656;2023-05-16T00:42:34;11.70;99.90
1766;DHT22;880;52.452;8.656;2023-05-16T00:45:03;11.70;99.90
1766;DHT22;880;52.452;8.656;2023-05-16T00:47:30;11.70;99.90
1766;DHT22;880;52.452;8.656;2023-05-16T00:49:58;11.70;99.90
1766;DHT22;880;52.452;8.656;2023-05-16T00:52:25;11.70;99.90
1766;DHT22;880;52.452;8.656;2023-05-16T00:54:52;11.60;99.90
1766;DHT22;880;52.452;8.656;2023-05-16T00:57:19;11.60;99.90
1766;DHT22;880;52.452;8.656;2023-05-16T00:59:46;11.60;99.90
1766;DHT22;880;52.452;8.656;2023-05-16T01:02:14;11.70;99.90
1766;DHT22;880;52.452;8.656;2023-05-16T01:04:42;11.70;99.90
1766;DHT22;880;52.452;8.656;2023-05-16T01:07:09;11.70;99.90
1766;DHT22;880;52.452;8.656;2023-05-16T01:09:37;11.70;99.90
1766;DHT22;880;52.452;8.656;2023-05-16T01:12:36;11.70;99.90
1766;DHT22;880;52.452;8.656;2023-05-16T01:15:35;11.60;99.90
1766;DHT22;880;52.452;8.656;2023-05-16T01:18:59;11.50;99.90
1766;DHT22;880;52.452;8.656;2023-05-16T01:21:44;11.40;99.90
1766;DHT22;880;52.452;8.656;2023-05-16T01:27:52;11.30;99.90
1766;DHT22;880;52.452;8.656;2023-05-16T01:30:22;11.30;99.90
1766;DHT22;880;52.452;8.656;2023-05-16T01:32:48;11.20;99.90
1766;DHT22;880;52.452;8.656;2023-05-16T01:35:16;11.10;99.90
1766;DHT22;880;52.452;8.656;2023-05-16T01:40:54;11.10;99.90
1766;DHT22;880;52.452;8.656;2023-05-16T01:43:45;11.30;99.90
1766;DHT22;880;52.452;8.656;2023-05-16T01:46:20;11.20;99.90
1766;DHT22;880;52.452;8.656;2023-05-16T01:49:15;11.20;99.90
1766;DHT22;880;52.452;8.656;2023-05-16T01:51:59;11.30;99.90
1766;DHT22;880;52.452;8.656;2023-05-16T01:54:38;11.20;99.90
1766;DHT22;880;52.452;8.656;2023-05-16T01:57:12;11.20;99.90
1766;DHT22;880;52.452;8.656;2023-05-16T01:59:40;11.20;99.90
1766;DHT22;880;52.452;8.656;2023-05-16T02:02:09;11.20;99.90
1766;DHT22;880;52.452;8.656;2023-05-16T02:04:37;11.20;99.90
1766;DHT22;880;52.452;8.656;2023-05-16T02:07:04;11.10;99.90
1766;DHT22;880;52.452;8.656;2023-05-16T02:09:31;11.10;99.90
1766;DHT22;880;52.452;8.656;2023-05-16T02:11:58;11.10;99.90
1766;DHT22;880;52.452;8.656;2023-05-16T02:14:26;11.10;99.90
1766;DHT22;880;52.452;8.656;2023-05-16T02:16:53;11.00;99.90
1766;DHT22;880;52.452;8.656;2023-05-16T02:19:21;11.00;99.90
1766;DHT22;880;52.452;8.656;2023-05-16T02:21:48;11.00;99.90
1766;DHT22;880;52.452;8.656;2023-05-16T02:24:15;11.00;99.90
1766;DHT22;880;52.452;8.656;2023-05-16T02:26:42;10.90;99.90
1766;DHT22;880;52.452;8.656;2023-05-16T02:29:09;10.80;99.90
1766;DHT22;880;52.452;8.656;2023-05-16T02:31:36;10.90;99.90
1766;DHT22;880;52.452;8.656;2023-05-16T02:34:04;10.90;99.90
1766;DHT22;880;52.452;8.656;2023-05-16T02:36:31;10.90;99.90
1766;DHT22;880;52.452;8.656;2023-05-16T02:39:00;10.90;99.90
1766;DHT22;880;52.452;8.656;2023-05-16T02:41:27;10.90;99.90
1766;DHT22;880;52.452;8.656;2023-05-16T02:43:54;10.90;99.90
1766;DHT22;880;52.452;8.656;2023-05-16T02:46:26;10.80;99.90
1766;DHT22;880;52.452;8.656;2023-05-16T02:48:54;10.80;99.90
1766;DHT22;880;52.452;8.656;2023-05-16T02:51:23;10.90;99.90
1766;DHT22;880;52.452;8.656;2023-05-16T02:53:52;10.90;99.90
1766;DHT22;880;52.452;8.656;2023-05-16T02:56:22;10.80;99.90
1766;DHT22;880;52.452;8.656;2023-05-16T02:58:50;10.80;99.90
1766;DHT22;880;52.452;8.656;2023-05-16T03:01:17;10.90;99.90
1766;DHT22;880;52.452;8.656;2023-05-16T03:03:44;10.80;99.90
1766;DHT22;880;52.452;8.656;2023-05-16T03:06:11;10.70;99.90
1766;DHT22;880;52.452;8.656;2023-05-16T03:08:38;10.80;99.90
1766;DHT22;880;52.452;8.656;2023-05-16T03:11:05;10.80;99.90
1766;DHT22;880;52.452;8.656;2023-05-16T03:13:32;10.90;99.90
1766;DHT22;880;52.452;8.656;2023-05-16T03:15:59;10.80;99.90
1766;DHT22;880;52.452;8.656;2023-05-16T03:18:27;10.80;99.90
1766;DHT22;880;52.452;8.656;2023-05-16T03:20:54;10.70;99.90
1766;DHT22;880;52.452;8.656;2023-05-16T03:23:22;10.70;99.90
1766;DHT22;880;52.452;8.656;2023-05-16T03:25:49;10.60;99.90
1766;DHT22;880;52.452;8.656;2023-05-16T03:28:19;10.60;99.90
1766;DHT22;880;52.452;8.656;2023-05-16T03:30:47;10.70;99.90
1766;DHT22;880;52.452;8.656;2023-05-16T03:33:13;10.70;99.90
1766;DHT22;880;52.452;8.656;2023-05-16T03:35:41;10.70;99.90
1766;DHT22;880;52.452;8.656;2023-05-16T03:38:08;10.60;99.90
1766;DHT22;880;52.452;8.656;2023-05-16T03:40:35;10.60;99.90
1766;DHT22;880;52.452;8.656;2023-05-16T03:43:02;10.60;99.90
1766;DHT22;880;52.452;8.656;2023-05-16T03:45:29;10.70;99.90
1766;DHT22;880;52.452;8.656;2023-05-16T03:47:57;10.60;99.90
1766;DHT22;880;52.452;8.656;2023-05-16T03:50:24;10.50;99.90
1766;DHT22;880;52.452;8.656;2023-05-16T03:52:51;10.40;99.90
1766;DHT22;880;52.452;8.656;2023-05-16T03:55:21;10.30;99.90
1766;DHT22;880;52.452;8.656;2023-05-16T03:57:48;10.20;99.90
1766;DHT22;880;52.452;8.656;2023-05-16T04:00:16;10.20;99.90
1766;DHT22;880;52.452;8.656;2023-05-16T04:02:43;10.20;99.90
1766;DHT22;880;52.452;8.656;2023-05-16T04:05:11;10.20;99.90
1766;DHT22;880;52.452;8.656;2023-05-16T04:07:40;10.20;99.90
1766;DHT22;880;52.452;8.656;2023-05-16T04:10:08;10.20;99.90
1766;DHT22;880;52.452;8.656;2023-05-16T04:12:35;10.20;99.90
1766;DHT22;880;52.452;8.656;2023-05-16T04:15:04;10.20;99.90
1766;DHT22;880;52.452;8.656;2023-05-16T04:17:32;10.10;99.90
1766;DHT22;880;52.452;8.656;2023-05-16T04:19:59;10.00;99.90
1766;DHT22;880;52.452;8.656;2023-05-16T04:22:27;10.00;99.90
1766;DHT22;880;52.452;8.656;2023-05-16T04:24:54;9.90;99.90
1766;DHT22;880;52.452;8.656;2023-05-16T04:27:21;9.90;99.90
1766;DHT22;880;52.452;8.656;2023-05-16T04:29:49;9.90;99.90
1766;DHT22;880;52.452;8.656;2023-05-16T04:32:16;9.90;99.90
1766;DHT22;880;52.452;8.656;2023-05-16T04:34:43;9.90;99.90
1766;DHT22;880;52.452;8.656;2023-05-16T04:37:10;10.00;99.90
1766;DHT22;880;52.452;8.656;2023-05-16T04:39:37;10.00;99.90
1766;DHT22;880;52.452;8.656;2023-05-16T04:42:05;9.90;99.90
1766;DHT22;880;52.452;8.656;2023-05-16T04:44:32;9.90;99.90
1766;DHT22;880;52.452;8.656;2023-05-16T04:47:00;9.90;99.90
1766;DHT22;880;52.452;8.656;2023-05-16T04:49:27;9.90;99.90
1766;DHT22;880;52.452;8.656;2023-05-16T04:51:54;9.90;99.90
1766;DHT22;880;52.452;8.656;2023-05-16T04:54:21;9.80;99.90
1766;DHT22;880;52.452;8.656;2023-05-16T04:56:48;9.70;99.90
1766;DHT22;880;52.452;8.656;2023-05-16T04:59:15;9.70;99.90
1766;DHT22;880;52.452;8.656;2023-05-16T05:01:42;9.80;99.90
1766;DHT22;880;52.452;8.656;2023-05-16T05:04:09;9.80;99.90
1766;DHT22;880;52.452;8.656;2023-05-16T05:06:36;9.70;99.90
1766;DHT22;880;52.452;8.656;2023-05-16T05:09:03;9.80;99.90
1766;DHT22;880;52.452;8.656;2023-05-16T05:11:31;9.80;99.90
1766;DHT22;880;52.452;8.656;2023-05-16T05:13:58;10.00;99.90
1766;DHT22;880;52.452;8.656;2023-05-16T05:16:25;9.90;99.90
1766;DHT22;880;52.452;8.656;2023-05-16T05:18:52;9.90;99.90
1766;DHT22;880;52.452;8.656;2023-05-16T05:21:19;10.00;99.90
1766;DHT22;880;52.452;8.656;2023-05-16T05:23:47;10.00;99.90
1766;DHT22;880;52.452;8.656;2023-05-16T05:26:15;10.00;99.90
1766;DHT22;880;52.452;8.656;2023-05-16T05:28:42;10.10;99.90
1766;DHT22;880;52.452;8.656;2023-05-16T05:31:27;10.20;99.90
1766;DHT22;880;52.452;8.656;2023-05-16T05:33:54;10.30;99.90
1766;DHT22;880;52.452;8.656;2023-05-16T05:36:22;10.40;99.90
1766;DHT22;880;52.452;8.656;2023-05-16T05:38:49;10.50;99.90
1766;DHT22;880;52.452;8.656;2023-05-16T05:41:16;10.50;99.90
1766;DHT22;880;52.452;8.656;2023-05-16T05:43:43;10.60;99.90
1766;DHT22;880;52.452;8.656;2023-05-16T05:46:10;10.60;99.90
1766;DHT22;880;52.452;8.656;2023-05-16T05:48:37;10.70;99.90
1766;DHT22;880;52.452;8.656;2023-05-16T05:51:04;10.70;99.90
1766;DHT22;880;52.452;8.656;2023-05-16T05:53:31;10.70;99.90
1766;DHT22;880;52.452;8.656;2023-05-16T05:55:58;10.70;99.90
1766;DHT22;880;52.452;8.656;2023-05-16T05:58:25;10.70;99.90
1766;DHT22;880;52.452;8.656;2023-05-16T06:00:52;10.70;99.90
1766;DHT22;880;52.452;8.656;2023-05-16T06:03:19;10.50;99.90
1766;DHT22;880;52.452;8.656;2023-05-16T06:05:47;10.60;99.90
1766;DHT22;880;52.452;8.656;2023-05-16T06:08:14;10.60;99.90
1766;DHT22;880;52.452;8.656;2023-05-16T06:10:41;10.70;99.90
1766;DHT22;880;52.452;8.656;2023-05-16T06:13:08;10.80;99.90
1766;DHT22;880;52.452;8.656;2023-05-16T06:15:35;10.80;99.90
1766;DHT22;880;52.452;8.656;2023-05-16T06:18:02;10.80;99.90
1766;DHT22;880;52.452;8.656;2023-05-16T06:20:29;10.90;99.90
1766;DHT22;880;52.452;8.656;2023-05-16T06:22:56;11.00;99.90
1766;DHT22;880;52.452;8.656;2023-05-16T06:25:23;11.00;99.90
1766;DHT22;880;52.452;8.656;2023-05-16T06:27:51;11.10;99.90
1766;DHT22;880;52.452;8.656;2023-05-16T06:30:18;11.30;99.90
1766;DHT22;880;52.452;8.656;2023-05-16T06:32:44;11.30;99.90
1766;DHT22;880;52.452;8.656;2023-05-16T06:35:12;11.40;99.90
1766;DHT22;880;52.452;8.656;2023-05-16T06:37:39;11.60;99.90
1766;DHT22;880;52.452;8.656;2023-05-16T06:40:10;11.60;99.90
1766;DHT22;880;52.452;8.656;2023-05-16T06:42:38;11.70;99.90
1766;DHT22;880;52.452;8.656;2023-05-16T06:45:05;11.70;99.90
1766;DHT22;880;52.452;8.656;2023-05-16T06:47:33;11.80;99.90
1766;DHT22;880;52.452;8.656;2023-05-16T06:50:00;12.00;99.90
1766;DHT22;880;52.452;8.656;2023-05-16T06:52:27;11.90;99.90
1766;DHT22;880;52.452;8.656;2023-05-16T06:54:54;11.90;99.90
1766;DHT22;880;52.452;8.656;2023-05-16T06:57:21;12.10;99.90
1766;DHT22;880;52.452;8.656;2023-05-16T06:59:48;12.20;99.90
1766;DHT22;880;52.452;8.656;2023-05-16T07:02:15;12.40;99.90
1766;DHT22;880;52.452;8.656;2023-05-16T07:04:42;12.50;99.90
1766;DHT22;880;52.452;8.656;2023-05-16T07:07:09;12.40;99.90
1766;DHT22;880;52.452;8.656;2023-05-16T07:09:36;12.10;99.90
1766;DHT22;880;52.452;8.656;2023-05-16T07:12:04;12.10;99.90
1766;DHT22;880;52.452;8.656;2023-05-16T07:14:32;12.40;99.90
1766;DHT22;880;52.452;8.656;2023-05-16T07:16:58;12.40;99.90
1766;DHT22;880;52.452;8.656;2023-05-16T07:19:26;12.50;99.90
1766;DHT22;880;52.452;8.656;2023-05-16T07:21:53;12.70;99.90
1766;DHT22;880;52.452;8.656;2023-05-16T07:24:20;12.60;99.90
1766;DHT22;880;52.452;8.656;2023-05-16T07:26:48;12.20;99.90
1766;DHT22;880;52.452;8.656;2023-05-16T07:29:15;12.20;99.90
1766;DHT22;880;52.452;8.656;2023-05-16T07:31:42;12.20;99.90
1766;DHT22;880;52.452;8.656;2023-05-16T07:34:09;12.30;99.90
1766;DHT22;880;52.452;8.656;2023-05-16T07:36:37;12.50;99.90
1766;DHT22;880;52.452;8.656;2023-05-16T07:39:04;12.70;99.90
1766;DHT22;880;52.452;8.656;2023-05-16T07:41:31;12.80;99.90
1766;DHT22;880;52.452;8.656;2023-05-16T07:43:58;13.10;99.90
1766;DHT22;880;52.452;8.656;2023-05-16T07:46:26;13.30;99.90
1766;DHT22;880;52.452;8.656;2023-05-16T07:48:52;13.30;99.90
1766;DHT22;880;52.452;8.656;2023-05-16T07:51:20;13.50;99.90
1766;DHT22;880;52.452;8.656;2023-05-16T07:53:48;13.70;99.90
1766;DHT22;880;52.452;8.656;2023-05-16T07:56:15;13.80;99.90
1766;DHT22;880;52.452;8.656;2023-05-16T07:58:42;13.60;99.90
1766;DHT22;880;52.452;8.656;2023-05-16T08:01:09;13.40;99.90
1766;DHT22;880;52.452;8.656;2023-05-16T08:03:37;13.20;99.90
1766;DHT22;880;52.452;8.656;2023-05-16T08:06:04;13.10;99.90
1766;DHT22;880;52.452;8.656;2023-05-16T08:08:32;13.00;99.90
1766;DHT22;880;52.452;8.656;2023-05-16T08:10:59;13.10;99.90
1766;DHT22;880;52.452;8.656;2023-05-16T08:13:26;13.20;99.90
1766;DHT22;880;52.452;8.656;2023-05-16T08:15:53;13.30;99.90
1766;DHT22;880;52.452;8.656;2023-05-16T08:18:20;13.50;99.90
1766;DHT22;880;52.452;8.656;2023-05-16T08:20:48;13.70;99.90
1766;DHT22;880;52.452;8.656;2023-05-16T08:23:15;14.10;99.90
1766;DHT22;880;52.452;8.656;2023-05-16T08:25:42;14.20;99.90
1766;DHT22;880;52.452;8.656;2023-05-16T08:28:09;14.10;99.90
1766;DHT22;880;52.452;8.656;2023-05-16T08:30:36;13.90;99.90
1766;DHT22;880;52.452;8.656;2023-05-16T08:33:06;13.40;99.90
1766;DHT22;880;52.452;8.656;2023-05-16T08:35:33;13.30;99.90
1766;DHT22;880;52.452;8.656;2023-05-16T08:38:01;13.40;99.90
1766;DHT22;880;52.452;8.656;2023-05-16T08:40:28;13.70;99.90
1766;DHT22;880;52.452;8.656;2023-05-16T08:42:57;13.70;99.90
1766;DHT22;880;52.452;8.656;2023-05-16T08:45:24;13.60;99.90
1766;DHT22;880;52.452;8.656;2023-05-16T08:47:54;13.60;99.90
1766;DHT22;880;52.452;8.656;2023-05-16T08:50:23;13.40;99.90
1766;DHT22;880;52.452;8.656;2023-05-16T08:52:51;13.20;99.90
1766;DHT22;880;52.452;8.656;2023-05-16T08:55:20;13.20;99.90
1766;DHT22;880;52.452;8.656;2023-05-16T08:57:49;13.40;99.90
1766;DHT22;880;52.452;8.656;2023-05-16T09:00:18;13.80;99.90
1766;DHT22;880;52.452;8.656;2023-05-16T09:02:45;14.00;99.90
1766;DHT22;880;52.452;8.656;2023-05-16T09:05:16;14.50;99.90
1766;DHT22;880;52.452;8.656;2023-05-16T09:07:44;14.80;99.90
1766;DHT22;880;52.452;8.656;2023-05-16T09:10:12;14.80;99.90
1766;DHT22;880;52.452;8.656;2023-05-16T09:12:40;14.60;99.90
1766;DHT22;880;52.452;8.656;2023-05-16T09:15:09;14.30;99.90
1766;DHT22;880;52.452;8.656;2023-05-16T09:17:41;14.20;99.90
1766;DHT22;880;52.452;8.656;2023-05-16T09:22:58;14.20;99.90
1766;DHT22;880;52.452;8.656;2023-05-16T09:25:28;14.40;99.90
1766;DHT22;880;52.452;8.656;2023-05-16T09:27:59;14.30;99.90
1766;DHT22;880;52.452;8.656;2023-05-16T09:30:32;14.30;99.90
1766;DHT22;880;52.452;8.656;2023-05-16T09:33:01;14.30;99.90
1766;DHT22;880;52.452;8.656;2023-05-16T09:35:28;14.20;99.90
1766;DHT22;880;52.452;8.656;2023-05-16T09:38:15;14.20;99.90
1766;DHT22;880;52.452;8.656;2023-05-16T09:40:43;14.10;99.90
1766;DHT22;880;52.452;8.656;2023-05-16T09:43:14;14.00;99.90
1766;DHT22;880;52.452;8.656;2023-05-16T09:45:47;13.90;99.90
1766;DHT22;880;52.452;8.656;2023-05-16T09:48:15;14.20;99.90
1766;DHT22;880;52.452;8.656;2023-05-16T09:50:47;14.20;99.90
1766;DHT22;880;52.452;8.656;2023-05-16T09:53:30;14.20;99.90
1766;DHT22;880;52.452;8.656;2023-05-16T09:56:03;14.50;99.90
1766;DHT22;880;52.452;8.656;2023-05-16T09:58:32;14.60;99.90
1766;DHT22;880;52.452;8.656;2023-05-16T10:01:00;14.90;99.90
1766;DHT22;880;52.452;8.656;2023-05-16T10:03:28;15.00;99.90
1766;DHT22;880;52.452;8.656;2023-05-16T10:05:55;15.20;99.90
1766;DHT22;880;52.452;8.656;2023-05-16T10:08:24;15.10;99.90
1766;DHT22;880;52.452;8.656;2023-05-16T10:10:53;15.10;99.90
1766;DHT22;880;52.452;8.656;2023-05-16T10:13:23;14.90;99.90
1766;DHT22;880;52.452;8.656;2023-05-16T10:15:58;14.90;99.90
1766;DHT22;880;52.452;8.656;2023-05-16T10:18:29;14.70;99.90
1766;DHT22;880;52.452;8.656;2023-05-16T10:21:09;14.80;99.90
1766;DHT22;880;52.452;8.656;2023-05-16T10:23:40;14.70;99.90
1766;DHT22;880;52.452;8.656;2023-05-16T10:26:10;14.70;99.90
1766;DHT22;880;52.452;8.656;2023-05-16T10:28:40;14.70;99.90
1766;DHT22;880;52.452;8.656;2023-05-16T10:31:09;15.00;99.90
1766;DHT22;880;52.452;8.656;2023-05-16T10:33:37;15.10;99.90
1766;DHT22;880;52.452;8.656;2023-05-16T10:36:06;15.00;99.90
1766;DHT22;880;52.452;8.656;2023-05-16T10:38:35;14.90;99.90
1766;DHT22;880;52.452;8.656;2023-05-16T10:41:04;15.20;99.90
1766;DHT22;880;52.452;8.656;2023-05-16T10:43:32;15.20;99.90
1766;DHT22;880;52.452;8.656;2023-05-16T10:46:03;15.40;99.90
1766;DHT22;880;52.452;8.656;2023-05-16T10:48:34;15.60;99.90
1766;DHT22;880;52.452;8.656;2023-05-16T10:51:34;15.70;99.90
1766;DHT22;880;52.452;8.656;2023-05-16T10:54:08;15.50;99.90
1766;DHT22;880;52.452;8.656;2023-05-16T10:56:37;15.10;99.90
1766;DHT22;880;52.452;8.656;2023-05-16T10:59:24;14.90;99.90
1766;DHT22;880;52.452;8.656;2023-05-16T11:01:55;15.10;99.90
1766;DHT22;880;52.452;8.656;2023-05-16T11:04:22;15.40;99.90
1766;DHT22;880;52.452;8.656;2023-05-16T11:06:51;15.60;99.90
1766;DHT22;880;52.452;8.656;2023-05-16T11:09:21;15.90;99.90
1766;DHT22;880;52.452;8.656;2023-05-16T11:12:00;15.90;99.90
1766;DHT22;880;52.452;8.656;2023-05-16T11:19:56;16.90;99.70
1766;DHT22;880;52.452;8.656;2023-05-16T11:22:33;16.90;98.50
1766;DHT22;880;52.452;8.656;2023-05-16T11:25:08;16.60;99.00
1766;DHT22;880;52.452;8.656;2023-05-16T11:27:46;16.70;99.90
1766;DHT22;880;52.452;8.656;2023-05-16T11:30:17;16.60;99.70
1766;DHT22;880;52.452;8.656;2023-05-16T11:32:47;16.60;98.70
1766;DHT22;880;52.452;8.656;2023-05-16T11:35:17;16.50;98.70
1766;DHT22;880;52.452;8.656;2023-05-16T11:37:44;16.70;99.30
1766;DHT22;880;52.452;8.656;2023-05-16T11:40:13;17.00;99.70
1766;DHT22;880;52.452;8.656;2023-05-16T11:42:45;17.10;98.30
1766;DHT22;880;52.452;8.656;2023-05-16T11:47:51;17.20;96.70
1766;DHT22;880;52.452;8.656;2023-05-16T11:50:20;17.10;96.10
1766;DHT22;880;52.452;8.656;2023-05-16T11:52:50;16.80;95.30
1766;DHT22;880;52.452;8.656;2023-05-16T11:55:21;16.60;95.10
1766;DHT22;880;52.452;8.656;2023-05-16T11:58:07;16.30;96.40
1766;DHT22;880;52.452;8.656;2023-05-16T12:00:34;16.10;98.70
1766;DHT22;880;52.452;8.656;2023-05-16T12:03:02;16.20;99.90
1766;DHT22;880;52.452;8.656;2023-05-16T12:05:30;16.50;99.90
1766;DHT22;880;52.452;8.656;2023-05-16T12:08:01;16.70;99.60
1766;DHT22;880;52.452;8.656;2023-05-16T12:10:31;16.80;99.80
1766;DHT22;880;52.452;8.656;2023-05-16T12:13:01;16.70;98.20
1766;DHT22;880;52.452;8.656;2023-05-16T12:15:29;16.30;98.40
1766;DHT22;880;52.452;8.656;2023-05-16T12:17:57;15.90;98.40
1766;DHT22;880;52.452;8.656;2023-05-16T12:20:24;15.40;97.60
1766;DHT22;880;52.452;8.656;2023-05-16T12:22:52;15.10;98.30
1766;DHT22;880;52.452;8.656;2023-05-16T12:25:33;14.80;98.60
1766;DHT22;880;52.452;8.656;2023-05-16T12:28:07;14.50;99.30
1766;DHT22;880;52.452;8.656;2023-05-16T12:30:43;14.30;99.90
1766;DHT22;880;52.452;8.656;2023-05-16T12:33:12;14.30;99.90
1766;DHT22;880;52.452;8.656;2023-05-16T12:35:42;14.30;99.90
1766;DHT22;880;52.452;8.656;2023-05-16T12:38:14;14.50;99.90
1766;DHT22;880;52.452;8.656;2023-05-16T12:40:43;14.70;99.90
1766;DHT22;880;52.452;8.656;2023-05-16T12:43:21;15.10;99.90
1766;DHT22;880;52.452;8.656;2023-05-16T12:45:53;15.30;99.90
1766;DHT22;880;52.452;8.656;2023-05-16T12:48:22;15.70;99.90
1766;DHT22;880;52.452;8.656;2023-05-16T12:50:50;15.90;99.90
1766;DHT22;880;52.452;8.656;2023-05-16T12:53:17;16.10;99.90
1766;DHT22;880;52.452;8.656;2023-05-16T12:55:45;16.50;99.90
1766;DHT22;880;52.452;8.656;2023-05-16T12:58:13;16.90;97.90
1766;DHT22;880;52.452;8.656;2023-05-16T13:00:40;17.00;97.60
1766;DHT22;880;52.452;8.656;2023-05-16T13:03:07;16.90;98.30
1766;DHT22;880;52.452;8.656;2023-05-16T13:05:34;17.10;98.40
1766;DHT22;880;52.452;8.656;2023-05-16T13:08:02;17.30;97.70
1766;DHT22;880;52.452;8.656;2023-05-16T13:10:29;17.30;96.90
1766;DHT22;880;52.452;8.656;2023-05-16T13:12:56;17.30;97.30
1766;DHT22;880;52.452;8.656;2023-05-16T13:15:26;17.60;97.30
1766;DHT22;880;52.452;8.656;2023-05-16T13:17:54;17.60;95.90
1766;DHT22;880;52.452;8.656;2023-05-16T13:20:21;17.40;95.40
1766;DHT22;880;52.452;8.656;2023-05-16T13:22:48;17.30;93.00
1766;DHT22;880;52.452;8.656;2023-05-16T13:25:15;17.30;92.70
1766;DHT22;880;52.452;8.656;2023-05-16T13:27:42;17.20;92.70
1766;DHT22;880;52.452;8.656;2023-05-16T13:30:09;17.30;93.90
1766;DHT22;880;52.452;8.656;2023-05-16T13:32:37;17.10;92.30
1766;DHT22;880;52.452;8.656;2023-05-16T13:35:04;16.50;92.80
1766;DHT22;880;52.452;8.656;2023-05-16T13:37:32;16.00;99.90
1766;DHT22;880;52.452;8.656;2023-05-16T13:39:59;15.50;99.90
1766;DHT22;880;52.452;8.656;2023-05-16T13:42:26;14.70;99.90
1766;DHT22;880;52.452;8.656;2023-05-16T13:44:53;14.10;99.90
1766;DHT22;880;52.452;8.656;2023-05-16T13:47:20;14.00;99.90
1766;DHT22;880;52.452;8.656;2023-05-16T13:49:47;13.90;99.90
1766;DHT22;880;52.452;8.656;2023-05-16T13:52:14;13.80;99.90
1766;DHT22;880;52.452;8.656;2023-05-16T13:54:41;13.60;99.90
1766;DHT22;880;52.452;8.656;2023-05-16T13:57:09;13.50;99.90
1766;DHT22;880;52.452;8.656;2023-05-16T13:59:36;13.40;99.90
1766;DHT22;880;52.452;8.656;2023-05-16T14:02:23;13.60;99.90
1766;DHT22;880;52.452;8.656;2023-05-16T14:04:52;13.80;99.90
1766;DHT22;880;52.452;8.656;2023-05-16T14:07:19;14.00;99.90
1766;DHT22;880;52.452;8.656;2023-05-16T14:09:46;14.20;99.90
1766;DHT22;880;52.452;8.656;2023-05-16T14:12:13;14.30;99.90
1766;DHT22;880;52.452;8.656;2023-05-16T14:14:40;14.40;99.90
1766;DHT22;880;52.452;8.656;2023-05-16T14:17:07;14.40;99.90
1766;DHT22;880;52.452;8.656;2023-05-16T14:19:34;14.60;99.90
1766;DHT22;880;52.452;8.656;2023-05-16T14:22:02;14.60;99.90
1766;DHT22;880;52.452;8.656;2023-05-16T14:24:28;14.70;99.90
1766;DHT22;880;52.452;8.656;2023-05-16T14:26:55;14.90;99.90
1766;DHT22;880;52.452;8.656;2023-05-16T14:29:22;15.20;99.90
1766;DHT22;880;52.452;8.656;2023-05-16T14:31:51;15.20;99.10
1766;DHT22;880;52.452;8.656;2023-05-16T14:34:18;15.30;99.20
1766;DHT22;880;52.452;8.656;2023-05-16T14:36:45;15.50;99.90
1766;DHT22;880;52.452;8.656;2023-05-16T14:39:12;15.90;99.90
1766;DHT22;880;52.452;8.656;2023-05-16T14:41:39;16.10;99.80
1766;DHT22;880;52.452;8.656;2023-05-16T14:44:06;16.10;99.90
1766;DHT22;880;52.452;8.656;2023-05-16T14:46:33;16.20;99.90
1766;DHT22;880;52.452;8.656;2023-05-16T14:49:00;16.30;99.80
1766;DHT22;880;52.452;8.656;2023-05-16T14:51:27;16.10;99.10
1766;DHT22;880;52.452;8.656;2023-05-16T14:53:54;15.70;99.90
1766;DHT22;880;52.452;8.656;2023-05-16T14:56:21;15.70;99.90
1766;DHT22;880;52.452;8.656;2023-05-16T14:58:48;15.50;99.90
1766;DHT22;880;52.452;8.656;2023-05-16T15:01:15;15.40;99.90
1766;DHT22;880;52.452;8.656;2023-05-16T15:03:43;15.40;99.90
1766;DHT22;880;52.452;8.656;2023-05-16T15:06:22;15.60;99.90
1766;DHT22;880;52.452;8.656;2023-05-16T15:08:49;15.90;99.90
1766;DHT22;880;52.452;8.656;2023-05-16T15:11:16;16.30;99.90
1766;DHT22;880;52.452;8.656;2023-05-16T15:13:43;16.50;99.90
1766;DHT22;880;52.452;8.656;2023-05-16T15:16:11;16.50;99.90
1766;DHT22;880;52.452;8.656;2023-05-16T15:18:38;16.60;99.90
1766;DHT22;880;52.452;8.656;2023-05-16T15:21:06;16.80;99.90
1766;DHT22;880;52.452;8.656;2023-05-16T15:23:33;16.50;99.90
1766;DHT22;880;52.452;8.656;2023-05-16T15:26:00;16.30;99.90
1766;DHT22;880;52.452;8.656;2023-05-16T15:28:26;16.40;99.90
1766;DHT22;880;52.452;8.656;2023-05-16T15:30:54;16.40;99.90
1766;DHT22;880;52.452;8.656;2023-05-16T15:33:21;16.30;99.90
1766;DHT22;880;52.452;8.656;2023-05-16T15:35:48;16.10;99.90
1766;DHT22;880;52.452;8.656;2023-05-16T15:38:15;15.90;99.90
1766;DHT22;880;52.452;8.656;2023-05-16T15:40:42;15.80;99.90
1766;DHT22;880;52.452;8.656;2023-05-16T15:43:09;15.80;99.90
1766;DHT22;880;52.452;8.656;2023-05-16T15:45:36;15.80;99.90
1766;DHT22;880;52.452;8.656;2023-05-16T15:48:06;15.80;99.90
1766;DHT22;880;52.452;8.656;2023-05-16T15:50:33;15.80;99.90
1766;DHT22;880;52.452;8.656;2023-05-16T15:53:00;16.00;99.90
1766;DHT22;880;52.452;8.656;2023-05-16T15:55:27;16.00;99.90
1766;DHT22;880;52.452;8.656;2023-05-16T15:57:55;16.00;99.90
1766;DHT22;880;52.452;8.656;2023-05-16T16:00:24;15.80;99.90
1766;DHT22;880;52.452;8.656;2023-05-16T16:02:51;15.60;99.90
1766;DHT22;880;52.452;8.656;2023-05-16T16:05:19;15.30;99.90
1766;DHT22;880;52.452;8.656;2023-05-16T16:07:46;15.20;99.90
1766;DHT22;880;52.452;8.656;2023-05-16T16:10:13;15.20;99.90
1766;DHT22;880;52.452;8.656;2023-05-16T16:12:43;15.20;99.90
1766;DHT22;880;52.452;8.656;2023-05-16T16:15:24;15.10;99.90
1766;DHT22;880;52.452;8.656;2023-05-16T16:17:51;15.10;99.90
1766;DHT22;880;52.452;8.656;2023-05-16T16:20:18;15.10;99.90
1766;DHT22;880;52.452;8.656;2023-05-16T16:22:45;15.00;99.90
1766;DHT22;880;52.452;8.656;2023-05-16T16:25:12;14.90;99.90
1766;DHT22;880;52.452;8.656;2023-05-16T16:27:39;14.90;99.90
1766;DHT22;880;52.452;8.656;2023-05-16T16:30:08;14.60;99.90
1766;DHT22;880;52.452;8.656;2023-05-16T16:32:35;14.50;99.90
1766;DHT22;880;52.452;8.656;2023-05-16T16:35:02;14.50;99.90
1766;DHT22;880;52.452;8.656;2023-05-16T16:37:31;14.70;99.90
1766;DHT22;880;52.452;8.656;2023-05-16T16:39:58;14.50;99.90
1766;DHT22;880;52.452;8.656;2023-05-16T16:42:25;14.50;99.90
1766;DHT22;880;52.452;8.656;2023-05-16T16:44:52;14.50;99.90
1766;DHT22;880;52.452;8.656;2023-05-16T16:47:21;14.40;99.90